sensor_id;sensor_type;location;lat;lon;timestamp;pressure;altitude;pressure_sealevel;temperature;humidity
40285;BME280;25997;50.214;19.354;2023-08-01T00:02:45;97083.38;;;17.91;48.48
40285;BME280;25997;50.214;19.354;2023-08-01T00:05:49;97086.06;;;17.91;48.31
40285;BME280;25997;50.214;19.354;2023-08-01T00:08:51;97082.50;;;17.92;48.14
40285;BME280;25997;50.214;19.354;2023-08-01T00:11:54;97079.03;;;17.87;48.27
40285;BME280;25997;50.214;19.354;2023-08-01T00:14:57;97081.78;;;17.83;48.39
40285;BME280;25997;50.214;19.354;2023-08-01T00:17:59;97073.00;;;17.79;48.42
40285;BME280;25997;50.214;19.354;2023-08-01T00:21:03;97075.66;;;17.78;48.53
40285;BME280;25997;50.214;19.354;2023-08-01T00:24:10;97072.16;;;17.76;48.32
40285;BME280;25997;50.214;19.354;2023-08-01T00:27:13;97067.88;;;17.70;48.60
40285;BME280;25997;50.214;19.354;2023-08-01T00:30:15;97064.31;;;17.70;48.67
40285;BME280;25997;50.214;19.354;2023-08-01T00:33:18;97059.00;;;17.70;48.53
40285;BME280;25997;50.214;19.354;2023-08-01T00:36:22;97059.00;;;17.70;48.55
40285;BME280;25997;50.214;19.354;2023-08-01T00:39:24;97060.81;;;17.68;48.21
40285;BME280;25997;50.214;19.354;2023-08-01T00:42:27;97060.03;;;17.63;48.56
40285;BME280;25997;50.214;19.354;2023-08-01T00:45:30;97054.81;;;17.57;48.58
40285;BME280;25997;50.214;19.354;2023-08-01T00:48:32;97045.09;;;17.57;48.60
40285;BME280;25997;50.214;19.354;2023-08-01T00:51:36;97039.91;;;17.50;48.78
40285;BME280;25997;50.214;19.354;2023-08-01T00:54:39;97034.72;;;17.42;48.99
40285;BME280;25997;50.214;19.354;2023-08-01T00:57:42;97031.38;;;17.31;49.13
40285;BME280;25997;50.214;19.354;2023-08-01T01:00:45;97025.38;;;17.18;49.51
40285;BME280;25997;50.214;19.354;2023-08-01T01:03:48;97016.59;;;17.15;49.56
40285;BME280;25997;50.214;19.354;2023-08-01T01:06:57;97013.09;;;17.13;49.63
40285;BME280;25997;50.214;19.354;2023-08-01T01:10:02;97014.06;;;17.07;49.66
40285;BME280;25997;50.214;19.354;2023-08-01T01:13:04;97002.72;;;16.99;49.70
40285;BME280;25997;50.214;19.354;2023-08-01T01:16:07;96995.72;;;16.95;49.65
40285;BME280;25997;50.214;19.354;2023-08-01T01:19:09;96997.47;;;16.93;49.63
40285;BME280;25997;50.214;19.354;2023-08-01T01:22:14;96979.88;;;16.89;50.12
40285;BME280;25997;50.214;19.354;2023-08-01T01:25:18;96976.38;;;16.89;49.83
40285;BME280;25997;50.214;19.354;2023-08-01T01:28:22;96977.28;;;16.85;49.80
40285;BME280;25997;50.214;19.354;2023-08-01T01:31:25;96979.09;;;16.83;50.08
40285;BME280;25997;50.214;19.354;2023-08-01T01:34:28;96970.25;;;16.84;50.04
40285;BME280;25997;50.214;19.354;2023-08-01T01:37:32;96957.00;;;16.84;50.12
40285;BME280;25997;50.214;19.354;2023-08-01T01:40:34;96958.75;;;16.83;50.14
40285;BME280;25997;50.214;19.354;2023-08-01T01:43:37;96952.72;;;16.75;50.40
40285;BME280;25997;50.214;19.354;2023-08-01T01:46:40;96942.19;;;16.71;50.45
40285;BME280;25997;50.214;19.354;2023-08-01T01:49:43;96933.41;;;16.66;50.54
40285;BME280;25997;50.214;19.354;2023-08-01T01:52:47;96929.97;;;16.62;50.58
40285;BME280;25997;50.214;19.354;2023-08-01T01:55:49;96922.94;;;16.60;50.51
40285;BME280;25997;50.214;19.354;2023-08-01T01:58:51;96915.84;;;16.59;50.34
40285;BME280;25997;50.214;19.354;2023-08-01T02:01:54;96918.47;;;16.60;50.33
40285;BME280;25997;50.214;19.354;2023-08-01T02:04:56;96912.31;;;16.58;50.35
40285;BME280;25997;50.214;19.354;2023-08-01T02:08:00;96911.56;;;16.53;50.57
40285;BME280;25997;50.214;19.354;2023-08-01T02:11:02;96915.13;;;16.51;50.35
40285;BME280;25997;50.214;19.354;2023-08-01T02:14:05;96913.34;;;16.49;50.44
40285;BME280;25997;50.214;19.354;2023-08-01T02:17:07;96904.56;;;16.47;50.37
40285;BME280;25997;50.214;19.354;2023-08-01T02:20:11;96904.59;;;16.46;50.31
40285;BME280;25997;50.214;19.354;2023-08-01T02:23:15;96899.31;;;16.43;50.55
40285;BME280;25997;50.214;19.354;2023-08-01T02:26:17;96899.31;;;16.43;50.36
40285;BME280;25997;50.214;19.354;2023-08-01T02:29:19;96900.22;;;16.40;50.35
40285;BME280;25997;50.214;19.354;2023-08-01T02:32:22;96898.44;;;16.41;50.00
40285;BME280;25997;50.214;19.354;2023-08-01T02:35:25;96893.19;;;16.38;50.51
40285;BME280;25997;50.214;19.354;2023-08-01T02:38:30;96888.88;;;16.32;50.28
40285;BME280;25997;50.214;19.354;2023-08-01T02:41:32;96883.59;;;16.31;50.42
40285;BME280;25997;50.214;19.354;2023-08-01T02:44:35;96877.41;;;16.30;50.58
40285;BME280;25997;50.214;19.354;2023-08-01T02:47:37;96880.06;;;16.30;50.78
40285;BME280;25997;50.214;19.354;2023-08-01T02:50:40;96878.31;;;16.29;50.45
40285;BME280;25997;50.214;19.354;2023-08-01T02:53:44;96873.00;;;16.29;50.76
40285;BME280;25997;50.214;19.354;2023-08-01T02:56:46;96869.41;;;16.33;50.41
40285;BME280;25997;50.214;19.354;2023-08-01T02:59:49;96868.56;;;16.33;50.56
40285;BME280;25997;50.214;19.354;2023-08-01T03:02:51;96875.59;;;16.34;50.38
40285;BME280;25997;50.214;19.354;2023-08-01T03:05:53;96864.09;;;16.35;50.56
40285;BME280;25997;50.214;19.354;2023-08-01T03:08:57;96861.38;;;16.38;50.31
40285;BME280;25997;50.214;19.354;2023-08-01T03:12:00;96867.53;;;16.40;50.18
40285;BME280;25997;50.214;19.354;2023-08-01T03:15:02;96868.41;;;16.43;50.67
40285;BME280;25997;50.214;19.354;2023-08-01T03:18:05;96865.72;;;16.46;50.21
40285;BME280;25997;50.214;19.354;2023-08-01T03:21:09;96866.53;;;16.50;50.31
40285;BME280;25997;50.214;19.354;2023-08-01T03:24:13;96863.00;;;16.51;50.23
40285;BME280;25997;50.214;19.354;2023-08-01T03:27:15;96861.16;;;16.55;50.43
40285;BME280;25997;50.214;19.354;2023-08-01T03:30:17;96854.91;;;16.59;50.23
40285;BME280;25997;50.214;19.354;2023-08-01T03:33:21;96852.09;;;16.68;50.00
40285;BME280;25997;50.214;19.354;2023-08-01T03:36:24;96850.16;;;16.77;50.14
40285;BME280;25997;50.214;19.354;2023-08-01T03:39:28;96855.28;;;16.88;50.01
40285;BME280;25997;50.214;19.354;2023-08-01T03:42:30;96839.13;;;17.01;49.49
40285;BME280;25997;50.214;19.354;2023-08-01T03:45:33;96837.97;;;17.14;49.63
40285;BME280;25997;50.214;19.354;2023-08-01T03:48:35;96834.28;;;17.23;49.20
40285;BME280;25997;50.214;19.354;2023-08-01T03:51:38;96834.16;;;17.31;49.41
40285;BME280;25997;50.214;19.354;2023-08-01T03:54:42;96828.66;;;17.40;49.35
40285;BME280;25997;50.214;19.354;2023-08-01T03:57:44;96831.97;;;17.51;48.94
40285;BME280;25997;50.214;19.354;2023-08-01T04:00:47;96830.09;;;17.54;48.93
40285;BME280;25997;50.214;19.354;2023-08-01T04:03:49;96832.56;;;17.63;48.65
40285;BME280;25997;50.214;19.354;2023-08-01T04:06:52;96835.09;;;17.69;48.92
40285;BME280;25997;50.214;19.354;2023-08-01T04:09:55;96827.06;;;17.72;48.82
40285;BME280;25997;50.214;19.354;2023-08-01T04:12:58;96836.72;;;17.76;48.88
40285;BME280;25997;50.214;19.354;2023-08-01T04:16:00;96837.59;;;17.77;48.82
40285;BME280;25997;50.214;19.354;2023-08-01T04:19:03;96834.00;;;17.78;48.74
40285;BME280;25997;50.214;19.354;2023-08-01T04:22:05;96834.00;;;17.79;48.84
40285;BME280;25997;50.214;19.354;2023-08-01T04:25:09;96829.53;;;17.81;49.01
40285;BME280;25997;50.214;19.354;2023-08-01T04:28:12;96819.78;;;17.80;49.02
40285;BME280;25997;50.214;19.354;2023-08-01T04:31:14;96819.88;;;17.77;48.99
40285;BME280;25997;50.214;19.354;2023-08-01T04:34:17;96818.06;;;17.79;48.86
40285;BME280;25997;50.214;19.354;2023-08-01T04:37:19;96814.53;;;17.79;49.29
40285;BME280;25997;50.214;19.354;2023-08-01T04:40:25;96820.53;;;17.87;49.15
40285;BME280;25997;50.214;19.354;2023-08-01T04:43:27;96814.28;;;17.89;49.16
40285;BME280;25997;50.214;19.354;2023-08-01T04:46:29;96807.06;;;17.98;49.06
40285;BME280;25997;50.214;19.354;2023-08-01T04:49:32;96810.44;;;18.04;48.99
40285;BME280;25997;50.214;19.354;2023-08-01T04:52:34;96812.19;;;18.05;49.01
40285;BME280;25997;50.214;19.354;2023-08-01T04:55:38;96814.66;;;18.13;48.83
40285;BME280;25997;50.214;19.354;2023-08-01T04:58:42;96815.31;;;18.22;48.81
40285;BME280;25997;50.214;19.354;2023-08-01T05:01:44;96815.13;;;18.30;48.77
40285;BME280;25997;50.214;19.354;2023-08-01T05:04:46;96813.91;;;18.44;48.89
40285;BME280;25997;50.214;19.354;2023-08-01T05:07:49;96812.91;;;18.48;48.80
40285;BME280;25997;50.214;19.354;2023-08-01T05:10:53;96816.41;;;18.50;48.67
40285;BME280;25997;50.214;19.354;2023-08-01T05:13:55;96814.69;;;18.48;48.67
40285;BME280;25997;50.214;19.354;2023-08-01T05:16:57;96810.19;;;18.50;48.70
40285;BME280;25997;50.214;19.354;2023-08-01T05:20:00;96821.81;;;18.46;48.76
40285;BME280;25997;50.214;19.354;2023-08-01T05:23:02;96813.84;;;18.46;48.82
40285;BME280;25997;50.214;19.354;2023-08-01T05:26:06;96818.34;;;18.44;49.12
40285;BME280;25997;50.214;19.354;2023-08-01T05:29:08;96816.78;;;18.35;48.99
40285;BME280;25997;50.214;19.354;2023-08-01T05:32:10;96814.28;;;18.28;49.30
40285;BME280;25997;50.214;19.354;2023-08-01T05:35:13;96811.63;;;18.28;49.12
40285;BME280;25997;50.214;19.354;2023-08-01T05:38:15;96810.66;;;18.32;49.13
40285;BME280;25997;50.214;19.354;2023-08-01T05:41:19;96806.97;;;18.37;49.15
40285;BME280;25997;50.214;19.354;2023-08-01T05:44:22;96807.50;;;18.51;48.87
40285;BME280;25997;50.214;19.354;2023-08-01T05:47:24;96810.84;;;18.59;49.07
40285;BME280;25997;50.214;19.354;2023-08-01T05:50:27;96797.25;;;18.72;49.04
40285;BME280;25997;50.214;19.354;2023-08-01T05:53:29;96807.69;;;18.79;49.06
40285;BME280;25997;50.214;19.354;2023-08-01T05:56:33;96813.69;;;18.87;49.26
40285;BME280;25997;50.214;19.354;2023-08-01T05:59:36;96800.19;;;18.95;49.25
40285;BME280;25997;50.214;19.354;2023-08-01T06:02:38;96800.00;;;19.01;49.27
40285;BME280;25997;50.214;19.354;2023-08-01T06:05:41;96805.16;;;19.07;49.18
40285;BME280;25997;50.214;19.354;2023-08-01T06:08:43;96806.84;;;19.11;49.35
40285;BME280;25997;50.214;19.354;2023-08-01T06:11:47;96811.84;;;19.21;49.29
40285;BME280;25997;50.214;19.354;2023-08-01T06:14:49;96808.31;;;19.21;49.28
40285;BME280;25997;50.214;19.354;2023-08-01T06:17:52;96807.28;;;19.26;49.37
40285;BME280;25997;50.214;19.354;2023-08-01T06:20:54;96792.81;;;19.37;49.05
40285;BME280;25997;50.214;19.354;2023-08-01T06:23:57;96805.59;;;19.55;48.84
40285;BME280;25997;50.214;19.354;2023-08-01T06:27:01;96801.72;;;19.66;48.83
40285;BME280;25997;50.214;19.354;2023-08-01T06:30:03;96795.16;;;19.76;48.14
40285;BME280;25997;50.214;19.354;2023-08-01T06:33:06;96800.06;;;19.90;47.79
40285;BME280;25997;50.214;19.354;2023-08-01T06:36:08;96803.28;;;20.01;47.57
40285;BME280;25997;50.214;19.354;2023-08-01T06:39:10;96797.75;;;20.09;47.76
40285;BME280;25997;50.214;19.354;2023-08-01T06:42:14;96800.97;;;20.18;47.52
40285;BME280;25997;50.214;19.354;2023-08-01T06:45:17;96797.69;;;20.10;47.70
40285;BME280;25997;50.214;19.354;2023-08-01T06:48:20;96793.25;;;20.11;48.13
40285;BME280;25997;50.214;19.354;2023-08-01T06:51:22;96789.75;;;20.09;47.94
40285;BME280;25997;50.214;19.354;2023-08-01T06:54:24;96777.34;;;20.08;48.20
40285;BME280;25997;50.214;19.354;2023-08-01T06:57:28;96774.53;;;20.12;48.30
40285;BME280;25997;50.214;19.354;2023-08-01T07:00:31;96776.00;;;20.21;48.42
40285;BME280;25997;50.214;19.354;2023-08-01T07:03:34;96779.19;;;20.33;48.51
40285;BME280;25997;50.214;19.354;2023-08-01T07:06:36;96776.16;;;20.44;48.50
40285;BME280;25997;50.214;19.354;2023-08-01T07:09:38;96767.13;;;20.48;48.35
40285;BME280;25997;50.214;19.354;2023-08-01T07:12:42;96761.25;;;20.63;48.30
40285;BME280;25997;50.214;19.354;2023-08-01T07:15:45;96769.25;;;20.89;48.49
40285;BME280;25997;50.214;19.354;2023-08-01T07:18:47;96773.28;;;21.01;48.04
40285;BME280;25997;50.214;19.354;2023-08-01T07:21:51;96772.31;;;21.03;48.33
40285;BME280;25997;50.214;19.354;2023-08-01T07:24:53;96764.38;;;21.02;48.75
40285;BME280;25997;50.214;19.354;2023-08-01T07:27:57;96755.22;;;21.09;48.67
40285;BME280;25997;50.214;19.354;2023-08-01T07:31:01;96758.19;;;21.24;48.46
40285;BME280;25997;50.214;19.354;2023-08-01T07:34:03;96760.53;;;21.33;48.47
40285;BME280;25997;50.214;19.354;2023-08-01T07:37:07;96752.13;;;21.44;48.27
40285;BME280;25997;50.214;19.354;2023-08-01T07:40:10;96754.63;;;21.48;48.29
40285;BME280;25997;50.214;19.354;2023-08-01T07:43:14;96742.53;;;21.62;48.38
40285;BME280;25997;50.214;19.354;2023-08-01T07:46:16;96743.16;;;21.68;48.04
40285;BME280;25997;50.214;19.354;2023-08-01T07:49:18;96744.78;;;21.49;48.56
40285;BME280;25997;50.214;19.354;2023-08-01T07:52:21;96737.22;;;21.60;48.16
40285;BME280;25997;50.214;19.354;2023-08-01T07:55:23;96744.53;;;21.78;48.43
40285;BME280;25997;50.214;19.354;2023-08-01T07:58:27;96740.41;;;21.93;47.99
40285;BME280;25997;50.214;19.354;2023-08-01T08:01:29;96743.72;;;22.21;47.67
40285;BME280;25997;50.214;19.354;2023-08-01T08:04:32;96748.47;;;22.14;48.13
40285;BME280;25997;50.214;19.354;2023-08-01T08:07:35;96739.53;;;22.15;47.86
40285;BME280;25997;50.214;19.354;2023-08-01T08:10:38;96742.38;;;22.11;48.02
40285;BME280;25997;50.214;19.354;2023-08-01T08:13:42;96740.63;;;22.10;48.47
40285;BME280;25997;50.214;19.354;2023-08-01T08:16:44;96753.19;;;21.85;48.69
40285;BME280;25997;50.214;19.354;2023-08-01T08:19:47;96744.41;;;21.60;49.41
40285;BME280;25997;50.214;19.354;2023-08-01T08:22:49;96749.97;;;21.06;50.49
40285;BME280;25997;50.214;19.354;2023-08-01T08:25:53;96753.38;;;20.85;51.77
40285;BME280;25997;50.214;19.354;2023-08-01T08:28:57;96747.72;;;20.69;51.39
40285;BME280;25997;50.214;19.354;2023-08-01T08:32:00;96749.69;;;20.62;51.67
40285;BME280;25997;50.214;19.354;2023-08-01T08:35:03;96740.41;;;20.75;51.89
40285;BME280;25997;50.214;19.354;2023-08-01T08:38:05;96730.91;;;20.92;51.76
40285;BME280;25997;50.214;19.354;2023-08-01T08:41:09;96729.53;;;21.05;52.24
40285;BME280;25997;50.214;19.354;2023-08-01T08:44:15;96724.97;;;21.08;52.49
40285;BME280;25997;50.214;19.354;2023-08-01T08:47:18;96725.47;;;21.18;52.41
40285;BME280;25997;50.214;19.354;2023-08-01T08:50:24;96725.31;;;21.22;52.37
40285;BME280;25997;50.214;19.354;2023-08-01T08:53:27;96729.56;;;21.28;52.64
40285;BME280;25997;50.214;19.354;2023-08-01T08:56:29;96722.50;;;21.50;52.47
40285;BME280;25997;50.214;19.354;2023-08-01T08:59:33;96732.78;;;21.61;52.52
40285;BME280;25997;50.214;19.354;2023-08-01T09:02:36;96724.41;;;21.70;52.44
40285;BME280;25997;50.214;19.354;2023-08-01T09:05:51;96726.00;;;21.74;52.77
40285;BME280;25997;50.214;19.354;2023-08-01T09:08:58;96722.88;;;21.86;52.61
40285;BME280;25997;50.214;19.354;2023-08-01T09:12:01;96724.56;;;22.10;52.41
40285;BME280;25997;50.214;19.354;2023-08-01T09:15:07;96720.63;;;22.40;52.36
40285;BME280;25997;50.214;19.354;2023-08-01T09:18:10;96710.34;;;22.73;52.26
40285;BME280;25997;50.214;19.354;2023-08-01T09:21:12;96693.41;;;23.11;51.26
40285;BME280;25997;50.214;19.354;2023-08-01T09:24:16;96706.94;;;23.47;50.70
40285;BME280;25997;50.214;19.354;2023-08-01T09:27:20;96701.38;;;23.70;50.32
40285;BME280;25997;50.214;19.354;2023-08-01T09:30:25;96695.09;;;23.90;49.82
40285;BME280;25997;50.214;19.354;2023-08-01T09:33:37;96702.03;;;23.94;49.38
40285;BME280;25997;50.214;19.354;2023-08-01T09:36:40;96702.56;;;23.83;49.86
40285;BME280;25997;50.214;19.354;2023-08-01T09:39:42;96699.81;;;23.85;49.58
40285;BME280;25997;50.214;19.354;2023-08-01T09:42:47;96694.94;;;23.74;49.50
40285;BME280;25997;50.214;19.354;2023-08-01T09:45:52;96689.97;;;23.67;49.10
40285;BME280;25997;50.214;19.354;2023-08-01T09:48:54;96674.00;;;23.45;49.26
40285;BME280;25997;50.214;19.354;2023-08-01T09:51:57;96671.94;;;23.13;48.93
40285;BME280;25997;50.214;19.354;2023-08-01T09:55:00;96672.09;;;22.89;49.50
40285;BME280;25997;50.214;19.354;2023-08-01T09:58:04;96667.91;;;22.64;50.12
40285;BME280;25997;50.214;19.354;2023-08-01T10:01:08;96651.66;;;22.47;49.98
40285;BME280;25997;50.214;19.354;2023-08-01T10:04:11;96658.97;;;22.43;50.52
40285;BME280;25997;50.214;19.354;2023-08-01T10:07:17;96656.28;;;22.43;51.21
40285;BME280;25997;50.214;19.354;2023-08-01T10:10:23;96653.88;;;22.37;50.17
40285;BME280;25997;50.214;19.354;2023-08-01T10:13:27;96652.47;;;22.29;50.60
40285;BME280;25997;50.214;19.354;2023-08-01T10:16:32;96652.91;;;22.18;50.23
40285;BME280;25997;50.214;19.354;2023-08-01T10:19:37;96653.28;;;21.87;49.51
40285;BME280;25997;50.214;19.354;2023-08-01T10:22:40;96659.19;;;21.52;48.81
40285;BME280;25997;50.214;19.354;2023-08-01T10:25:44;96664.91;;;21.20;50.12
40285;BME280;25997;50.214;19.354;2023-08-01T10:28:51;96669.50;;;20.92;50.39
40285;BME280;25997;50.214;19.354;2023-08-01T10:31:55;96657.38;;;20.58;51.19
40285;BME280;25997;50.214;19.354;2023-08-01T10:34:57;96665.03;;;20.43;52.13
40285;BME280;25997;50.214;19.354;2023-08-01T10:38:07;96672.69;;;20.29;53.85
40285;BME280;25997;50.214;19.354;2023-08-01T10:41:18;96671.59;;;20.08;53.05
40285;BME280;25997;50.214;19.354;2023-08-01T10:44:21;96679.63;;;19.51;54.51
40285;BME280;25997;50.214;19.354;2023-08-01T10:47:27;96681.19;;;19.29;55.21
40285;BME280;25997;50.214;19.354;2023-08-01T10:50:31;96679.50;;;18.97;55.60
40285;BME280;25997;50.214;19.354;2023-08-01T10:53:37;96678.50;;;18.71;57.63
40285;BME280;25997;50.214;19.354;2023-08-01T10:56:44;96671.69;;;18.59;56.70
40285;BME280;25997;50.214;19.354;2023-08-01T10:59:47;96677.44;;;18.44;58.58
40285;BME280;25997;50.214;19.354;2023-08-01T11:02:53;96683.75;;;18.40;59.02
40285;BME280;25997;50.214;19.354;2023-08-01T11:05:57;96683.13;;;18.30;59.30
40285;BME280;25997;50.214;19.354;2023-08-01T11:08:59;96680.88;;;18.14;59.88
40285;BME280;25997;50.214;19.354;2023-08-01T11:12:03;96675.69;;;18.09;61.48
40285;BME280;25997;50.214;19.354;2023-08-01T11:15:07;96676.63;;;18.08;60.26
40285;BME280;25997;50.214;19.354;2023-08-01T11:18:11;96676.78;;;18.02;61.59
40285;BME280;25997;50.214;19.354;2023-08-01T11:21:25;96674.31;;;17.95;63.79
40285;BME280;25997;50.214;19.354;2023-08-01T11:24:28;96678.88;;;17.88;62.05
40285;BME280;25997;50.214;19.354;2023-08-01T11:27:30;96680.81;;;17.81;62.72
40285;BME280;25997;50.214;19.354;2023-08-01T11:30:33;96688.84;;;17.78;63.78
40285;BME280;25997;50.214;19.354;2023-08-01T11:33:37;96682.13;;;17.64;64.95
40285;BME280;25997;50.214;19.354;2023-08-01T11:36:40;96675.97;;;17.62;65.36
40285;BME280;25997;50.214;19.354;2023-08-01T11:39:42;96686.59;;;17.62;66.05
40285;BME280;25997;50.214;19.354;2023-08-01T11:42:48;96682.09;;;17.65;65.89
40285;BME280;25997;50.214;19.354;2023-08-01T11:45:53;96690.94;;;17.66;65.86
40285;BME280;25997;50.214;19.354;2023-08-01T11:48:58;96692.75;;;17.64;66.09
40285;BME280;25997;50.214;19.354;2023-08-01T11:52:01;96685.88;;;17.55;67.08
40285;BME280;25997;50.214;19.354;2023-08-01T11:55:04;96689.53;;;17.50;67.90
40285;BME280;25997;50.214;19.354;2023-08-01T11:58:06;96680.78;;;17.45;67.53
40285;BME280;25997;50.214;19.354;2023-08-01T12:01:11;96676.16;;;17.54;67.37
40285;BME280;25997;50.214;19.354;2023-08-01T12:04:25;96684.25;;;17.48;69.94
40285;BME280;25997;50.214;19.354;2023-08-01T12:07:28;96678.75;;;17.57;67.63
40285;BME280;25997;50.214;19.354;2023-08-01T12:10:37;96677.88;;;17.57;69.03
40285;BME280;25997;50.214;19.354;2023-08-01T12:13:40;96669.13;;;17.53;68.35
40285;BME280;25997;50.214;19.354;2023-08-01T12:16:46;96664.75;;;17.49;69.23
40285;BME280;25997;50.214;19.354;2023-08-01T12:19:50;96664.03;;;17.43;69.07
40285;BME280;25997;50.214;19.354;2023-08-01T12:22:52;96660.38;;;17.48;68.59
40285;BME280;25997;50.214;19.354;2023-08-01T12:25:55;96661.47;;;17.40;68.62
40285;BME280;25997;50.214;19.354;2023-08-01T12:28:57;96654.34;;;17.40;68.29
40285;BME280;25997;50.214;19.354;2023-08-01T12:32:01;96649.03;;;17.42;69.00
40285;BME280;25997;50.214;19.354;2023-08-01T12:35:06;96651.06;;;17.29;68.65
40285;BME280;25997;50.214;19.354;2023-08-01T12:38:09;96664.66;;;17.14;69.42
40285;BME280;25997;50.214;19.354;2023-08-01T12:41:12;96657.09;;;16.96;70.31
40285;BME280;25997;50.214;19.354;2023-08-01T12:44:14;96666.84;;;16.95;70.51
40285;BME280;25997;50.214;19.354;2023-08-01T12:47:18;96669.22;;;17.07;70.05
40285;BME280;25997;50.214;19.354;2023-08-01T12:50:27;96663.09;;;17.05;70.36
40285;BME280;25997;50.214;19.354;2023-08-01T12:53:37;96659.44;;;17.11;69.40
40285;BME280;25997;50.214;19.354;2023-08-01T12:56:43;96659.41;;;17.12;69.77
40285;BME280;25997;50.214;19.354;2023-08-01T12:59:46;96655.91;;;17.10;70.35
40285;BME280;25997;50.214;19.354;2023-08-01T13:02:49;96654.00;;;17.17;70.19
40285;BME280;25997;50.214;19.354;2023-08-01T13:05:53;96667.09;;;17.26;70.25
40285;BME280;25997;50.214;19.354;2023-08-01T13:08:58;96654.56;;;17.31;70.20
40285;BME280;25997;50.214;19.354;2023-08-01T13:12:00;96660.63;;;17.38;70.32
40285;BME280;25997;50.214;19.354;2023-08-01T13:15:05;96644.72;;;17.36;70.16
40285;BME280;25997;50.214;19.354;2023-08-01T13:18:08;96658.97;;;17.32;69.70
40285;BME280;25997;50.214;19.354;2023-08-01T13:21:13;96657.97;;;17.38;69.62
40285;BME280;25997;50.214;19.354;2023-08-01T13:24:15;96655.28;;;17.39;69.52
40285;BME280;25997;50.214;19.354;2023-08-01T13:27:18;96649.25;;;17.31;70.06
40285;BME280;25997;50.214;19.354;2023-08-01T13:30:20;96649.25;;;17.33;70.21
40285;BME280;25997;50.214;19.354;2023-08-01T13:33:23;96649.16;;;17.36;69.83
40285;BME280;25997;50.214;19.354;2023-08-01T13:36:27;96643.84;;;17.36;69.39
40285;BME280;25997;50.214;19.354;2023-08-01T13:42:31;96634.38;;;17.26;69.97
40285;BME280;25997;50.214;19.354;2023-08-01T13:45:34;96639.72;;;17.23;69.71
40285;BME280;25997;50.214;19.354;2023-08-01T13:48:37;96631.00;;;17.17;70.08
40285;BME280;25997;50.214;19.354;2023-08-01T13:51:41;96633.66;;;17.16;70.27
40285;BME280;25997;50.214;19.354;2023-08-01T13:54:43;96626.75;;;17.09;70.66
40285;BME280;25997;50.214;19.354;2023-08-01T13:57:46;96620.59;;;17.08;70.91
40285;BME280;25997;50.214;19.354;2023-08-01T14:00:48;96621.72;;;16.97;71.17
40285;BME280;25997;50.214;19.354;2023-08-01T14:03:50;96618.25;;;16.93;71.32
40285;BME280;25997;50.214;19.354;2023-08-01T14:06:54;96611.13;;;16.97;70.88
40285;BME280;25997;50.214;19.354;2023-08-01T14:09:57;96612.00;;;16.97;71.01
40285;BME280;25997;50.214;19.354;2023-08-01T14:12:59;96607.78;;;16.89;71.55
40285;BME280;25997;50.214;19.354;2023-08-01T14:16:02;96602.59;;;16.83;71.23
40285;BME280;25997;50.214;19.354;2023-08-01T14:19:05;96602.59;;;16.83;71.19
40285;BME280;25997;50.214;19.354;2023-08-01T14:22:09;96612.34;;;16.81;71.87
40285;BME280;25997;50.214;19.354;2023-08-01T14:25:11;96596.84;;;16.63;72.04
40285;BME280;25997;50.214;19.354;2023-08-01T14:28:14;96587.25;;;16.57;72.77
40285;BME280;25997;50.214;19.354;2023-08-01T14:31:16;96582.75;;;16.62;72.31
40285;BME280;25997;50.214;19.354;2023-08-01T14:34:19;96587.97;;;16.65;72.70
40285;BME280;25997;50.214;19.354;2023-08-01T14:37:23;96583.41;;;16.72;72.36
40285;BME280;25997;50.214;19.354;2023-08-01T14:40:27;96606.38;;;16.73;72.39
40285;BME280;25997;50.214;19.354;2023-08-01T14:43:29;96592.28;;;16.71;72.14
40285;BME280;25997;50.214;19.354;2023-08-01T14:46:31;96595.88;;;16.67;72.59
40285;BME280;25997;50.214;19.354;2023-08-01T14:49:34;96596.75;;;16.67;72.33
40285;BME280;25997;50.214;19.354;2023-08-01T14:52:39;96610.72;;;16.75;72.47
40285;BME280;25997;50.214;19.354;2023-08-01T14:55:41;96599.38;;;16.69;72.32
40285;BME280;25997;50.214;19.354;2023-08-01T14:58:43;96602.88;;;16.71;72.23
40285;BME280;25997;50.214;19.354;2023-08-01T15:01:46;96606.38;;;16.71;72.13
40285;BME280;25997;50.214;19.354;2023-08-01T15:04:51;96604.69;;;16.69;72.66
40285;BME280;25997;50.214;19.354;2023-08-01T15:07:55;96601.84;;;16.76;72.09
40285;BME280;25997;50.214;19.354;2023-08-01T15:10:58;96600.22;;;16.71;72.48
40285;BME280;25997;50.214;19.354;2023-08-01T15:14:04;96596.69;;;16.70;72.68
40285;BME280;25997;50.214;19.354;2023-08-01T15:17:06;96595.75;;;16.73;72.99
40285;BME280;25997;50.214;19.354;2023-08-01T15:20:10;96596.75;;;16.69;72.89
40285;BME280;25997;50.214;19.354;2023-08-01T15:23:14;96594.09;;;16.69;72.78
40285;BME280;25997;50.214;19.354;2023-08-01T15:26:17;96593.22;;;16.68;72.91
40285;BME280;25997;50.214;19.354;2023-08-01T15:29:19;96598.50;;;16.67;73.41
40285;BME280;25997;50.214;19.354;2023-08-01T15:32:21;96603.06;;;16.62;73.82
40285;BME280;25997;50.214;19.354;2023-08-01T15:35:28;96581.97;;;16.57;73.73
40285;BME280;25997;50.214;19.354;2023-08-01T15:38:33;96585.50;;;16.56;73.39
40285;BME280;25997;50.214;19.354;2023-08-01T15:41:36;96602.25;;;16.58;73.64
40285;BME280;25997;50.214;19.354;2023-08-01T15:44:38;96606.78;;;16.53;72.99
40285;BME280;25997;50.214;19.354;2023-08-01T15:47:41;96610.41;;;16.47;73.79
40285;BME280;25997;50.214;19.354;2023-08-01T15:50:44;96600.59;;;16.53;73.34
40285;BME280;25997;50.214;19.354;2023-08-01T15:53:48;96594.22;;;16.61;73.41
40285;BME280;25997;50.214;19.354;2023-08-01T15:56:51;96587.22;;;16.59;73.13
40285;BME280;25997;50.214;19.354;2023-08-01T15:59:54;96605.81;;;16.56;73.23
40285;BME280;25997;50.214;19.354;2023-08-01T16:02:56;96612.09;;;16.53;73.28